sensor_id;sensor_type;location;lat;lon;timestamp;P1;durP1;ratioP1;P2;durP2;ratioP2
20271;SDS011;10295;49.812;9.866;2022-09-25T00:00:54;16.67;;;9.57;;
20271;SDS011;10295;49.812;9.866;2022-09-25T00:03:23;20.10;;;9.70;;
20271;SDS011;10295;49.812;9.866;2022-09-25T00:05:50;16.67;;;9.97;;
20271;SDS011;10295;49.812;9.866;2022-09-25T00:08:18;18.37;;;9.63;;
20271;SDS011;10295;49.812;9.866;2022-09-25T00:10:46;16.00;;;9.87;;
20271;SDS011;10295;49.812;9.866;2022-09-25T00:13:14;17.73;;;9.80;;
20271;SDS011;10295;49.812;9.866;2022-09-25T00:15:54;19.50;;;11.37;;
20271;SDS011;10295;49.812;9.866;2022-09-25T00:18:23;20.73;;;11.00;;
20271;SDS011;10295;49.812;9.866;2022-09-25T00:21:11;17.60;;;9.70;;
20271;SDS011;10295;49.812;9.866;2022-09-25T00:23:39;15.83;;;9.60;;
20271;SDS011;10295;49.812;9.866;2022-09-25T00:26:07;16.33;;;9.83;;
20271;SDS011;10295;49.812;9.866;2022-09-25T00:28:35;17.43;;;10.23;;
20271;SDS011;10295;49.812;9.866;2022-09-25T00:31:02;17.97;;;10.40;;
20271;SDS011;10295;49.812;9.866;2022-09-25T00:33:31;18.37;;;10.50;;
20271;SDS011;10295;49.812;9.866;2022-09-25T00:36:02;17.63;;;10.53;;
20271;SDS011;10295;49.812;9.866;2022-09-25T00:38:30;20.67;;;11.20;;
20271;SDS011;10295;49.812;9.866;2022-09-25T00:40:57;20.80;;;11.13;;
20271;SDS011;10295;49.812;9.866;2022-09-25T00:43:35;19.27;;;11.13;;
20271;SDS011;10295;49.812;9.866;2022-09-25T00:46:04;22.37;;;12.50;;
20271;SDS011;10295;49.812;9.866;2022-09-25T00:48:33;24.80;;;12.87;;
20271;SDS011;10295;49.812;9.866;2022-09-25T00:51:00;24.67;;;13.47;;
20271;SDS011;10295;49.812;9.866;2022-09-25T00:53:29;24.53;;;14.67;;
20271;SDS011;10295;49.812;9.866;2022-09-25T00:55:57;23.50;;;13.67;;
20271;SDS011;10295;49.812;9.866;2022-09-25T00:58:25;25.37;;;15.07;;
20271;SDS011;10295;49.812;9.866;2022-09-25T01:00:53;32.80;;;18.60;;
20271;SDS011;10295;49.812;9.866;2022-09-25T01:03:20;28.87;;;16.67;;
20271;SDS011;10295;49.812;9.866;2022-09-25T01:05:48;27.50;;;17.33;;
20271;SDS011;10295;49.812;9.866;2022-09-25T01:08:17;29.20;;;17.37;;
20271;SDS011;10295;49.812;9.866;2022-09-25T01:10:45;32.10;;;18.80;;
20271;SDS011;10295;49.812;9.866;2022-09-25T01:13:12;29.63;;;18.93;;
20271;SDS011;10295;49.812;9.866;2022-09-25T01:15:47;31.57;;;19.17;;
20271;SDS011;10295;49.812;9.866;2022-09-25T01:28:53;33.47;;;21.07;;
20271;SDS011;10295;49.812;9.866;2022-09-25T01:31:31;35.00;;;20.90;;
20271;SDS011;10295;49.812;9.866;2022-09-25T01:33:59;35.47;;;21.07;;
20271;SDS011;10295;49.812;9.866;2022-09-25T01:36:28;32.90;;;21.37;;
20271;SDS011;10295;49.812;9.866;2022-09-25T01:39:02;36.53;;;21.00;;
20271;SDS011;10295;49.812;9.866;2022-09-25T01:44:27;38.13;;;22.30;;
20271;SDS011;10295;49.812;9.866;2022-09-25T01:46:58;35.43;;;22.33;;
20271;SDS011;10295;49.812;9.866;2022-09-25T01:49:30;32.73;;;20.23;;
20271;SDS011;10295;49.812;9.866;2022-09-25T01:51:59;36.33;;;21.70;;
20271;SDS011;10295;49.812;9.866;2022-09-25T01:54:29;33.07;;;21.07;;
20271;SDS011;10295;49.812;9.866;2022-09-25T01:57:01;32.77;;;20.80;;
20271;SDS011;10295;49.812;9.866;2022-09-25T01:59:47;32.40;;;21.40;;
20271;SDS011;10295;49.812;9.866;2022-09-25T02:02:16;40.37;;;22.20;;
20271;SDS011;10295;49.812;9.866;2022-09-25T02:04:47;34.47;;;23.63;;
20271;SDS011;10295;49.812;9.866;2022-09-25T02:07:17;38.63;;;22.60;;
20271;SDS011;10295;49.812;9.866;2022-09-25T02:09:53;42.97;;;23.90;;
20271;SDS011;10295;49.812;9.866;2022-09-25T02:12:27;35.77;;;22.13;;
20271;SDS011;10295;49.812;9.866;2022-09-25T02:15:19;38.47;;;21.53;;
20271;SDS011;10295;49.812;9.866;2022-09-25T02:17:48;36.07;;;22.57;;
20271;SDS011;10295;49.812;9.866;2022-09-25T02:20:36;39.23;;;22.63;;
20271;SDS011;10295;49.812;9.866;2022-09-25T02:23:15;34.37;;;22.23;;
20271;SDS011;10295;49.812;9.866;2022-09-25T02:25:45;38.30;;;22.33;;
20271;SDS011;10295;49.812;9.866;2022-09-25T02:28:14;37.43;;;23.50;;
20271;SDS011;10295;49.812;9.866;2022-09-25T02:30:41;33.60;;;22.03;;
20271;SDS011;10295;49.812;9.866;2022-09-25T02:33:08;35.57;;;21.40;;
20271;SDS011;10295;49.812;9.866;2022-09-25T02:35:35;40.10;;;24.03;;
20271;SDS011;10295;49.812;9.866;2022-09-25T02:38:03;35.87;;;23.33;;
20271;SDS011;10295;49.812;9.866;2022-09-25T02:40:34;36.00;;;21.83;;
20271;SDS011;10295;49.812;9.866;2022-09-25T02:43:07;35.03;;;22.13;;
20271;SDS011;10295;49.812;9.866;2022-09-25T02:50:58;39.70;;;23.40;;
20271;SDS011;10295;49.812;9.866;2022-09-25T02:56:39;41.80;;;23.00;;
20271;SDS011;10295;49.812;9.866;2022-09-25T02:59:03;36.47;;;22.57;;
20271;SDS011;10295;49.812;9.866;2022-09-25T03:01:31;37.90;;;22.90;;
20271;SDS011;10295;49.812;9.866;2022-09-25T03:04:00;32.17;;;21.77;;
20271;SDS011;10295;49.812;9.866;2022-09-25T03:06:29;34.40;;;20.87;;
20271;SDS011;10295;49.812;9.866;2022-09-25T03:08:57;35.53;;;21.73;;
20271;SDS011;10295;49.812;9.866;2022-09-25T03:11:25;32.03;;;20.97;;
20271;SDS011;10295;49.812;9.866;2022-09-25T03:13:56;36.30;;;22.60;;
20271;SDS011;10295;49.812;9.866;2022-09-25T03:16:31;32.93;;;21.83;;
20271;SDS011;10295;49.812;9.866;2022-09-25T03:19:00;34.77;;;21.77;;
20271;SDS011;10295;49.812;9.866;2022-09-25T03:21:27;31.63;;;20.33;;
20271;SDS011;10295;49.812;9.866;2022-09-25T03:23:55;39.27;;;22.30;;
20271;SDS011;10295;49.812;9.866;2022-09-25T03:26:22;41.23;;;25.80;;
20271;SDS011;10295;49.812;9.866;2022-09-25T03:28:50;43.83;;;27.77;;
20271;SDS011;10295;49.812;9.866;2022-09-25T03:31:18;54.37;;;33.40;;
20271;SDS011;10295;49.812;9.866;2022-09-25T03:33:45;38.50;;;24.70;;
20271;SDS011;10295;49.812;9.866;2022-09-25T03:36:16;39.37;;;23.40;;
20271;SDS011;10295;49.812;9.866;2022-09-25T03:38:44;38.30;;;23.60;;
20271;SDS011;10295;49.812;9.866;2022-09-25T03:41:13;39.23;;;25.67;;
20271;SDS011;10295;49.812;9.866;2022-09-25T03:43:41;42.93;;;27.77;;
20271;SDS011;10295;49.812;9.866;2022-09-25T03:46:10;49.50;;;28.83;;
20271;SDS011;10295;49.812;9.866;2022-09-25T03:48:38;49.27;;;29.33;;
20271;SDS011;10295;49.812;9.866;2022-09-25T03:51:05;43.20;;;27.83;;
20271;SDS011;10295;49.812;9.866;2022-09-25T03:53:33;42.20;;;27.20;;
20271;SDS011;10295;49.812;9.866;2022-09-25T03:56:01;45.10;;;28.43;;
20271;SDS011;10295;49.812;9.866;2022-09-25T03:58:29;45.60;;;27.10;;
20271;SDS011;10295;49.812;9.866;2022-09-25T04:00:56;42.27;;;26.40;;
20271;SDS011;10295;49.812;9.866;2022-09-25T04:03:24;39.10;;;25.53;;
20271;SDS011;10295;49.812;9.866;2022-09-25T04:05:55;41.03;;;26.03;;
20271;SDS011;10295;49.812;9.866;2022-09-25T04:08:22;43.30;;;26.90;;
20271;SDS011;10295;49.812;9.866;2022-09-25T04:10:52;47.13;;;28.37;;
20271;SDS011;10295;49.812;9.866;2022-09-25T04:13:21;46.37;;;29.30;;
20271;SDS011;10295;49.812;9.866;2022-09-25T04:15:48;48.50;;;28.30;;
20271;SDS011;10295;49.812;9.866;2022-09-25T04:18:17;47.50;;;29.00;;
20271;SDS011;10295;49.812;9.866;2022-09-25T04:20:44;45.10;;;27.47;;
20271;SDS011;10295;49.812;9.866;2022-09-25T04:23:11;46.30;;;28.03;;
20271;SDS011;10295;49.812;9.866;2022-09-25T04:25:38;40.20;;;26.10;;
20271;SDS011;10295;49.812;9.866;2022-09-25T04:28:05;39.63;;;25.20;;
20271;SDS011;10295;49.812;9.866;2022-09-25T04:30:32;39.93;;;25.10;;
20271;SDS011;10295;49.812;9.866;2022-09-25T04:33:00;36.03;;;24.57;;
20271;SDS011;10295;49.812;9.866;2022-09-25T04:35:46;41.70;;;25.70;;
20271;SDS011;10295;49.812;9.866;2022-09-25T04:38:13;42.43;;;26.23;;
20271;SDS011;10295;49.812;9.866;2022-09-25T04:40:40;41.70;;;26.50;;
20271;SDS011;10295;49.812;9.866;2022-09-25T04:43:07;40.37;;;24.53;;
20271;SDS011;10295;49.812;9.866;2022-09-25T04:45:34;38.23;;;25.77;;
20271;SDS011;10295;49.812;9.866;2022-09-25T04:48:02;38.40;;;24.57;;
20271;SDS011;10295;49.812;9.866;2022-09-25T04:50:30;38.63;;;25.60;;
20271;SDS011;10295;49.812;9.866;2022-09-25T04:52:57;44.00;;;26.87;;
20271;SDS011;10295;49.812;9.866;2022-09-25T04:55:25;45.17;;;25.57;;
20271;SDS011;10295;49.812;9.866;2022-09-25T04:57:53;44.03;;;26.47;;
20271;SDS011;10295;49.812;9.866;2022-09-25T05:00:25;43.07;;;25.93;;
20271;SDS011;10295;49.812;9.866;2022-09-25T05:02:52;43.77;;;26.83;;
20271;SDS011;10295;49.812;9.866;2022-09-25T05:05:20;49.37;;;29.17;;
20271;SDS011;10295;49.812;9.866;2022-09-25T05:07:54;49.53;;;29.23;;
20271;SDS011;10295;49.812;9.866;2022-09-25T05:10:24;48.23;;;29.10;;
20271;SDS011;10295;49.812;9.866;2022-09-25T05:12:56;50.57;;;31.30;;
20271;SDS011;10295;49.812;9.866;2022-09-25T05:15:24;50.40;;;29.73;;
20271;SDS011;10295;49.812;9.866;2022-09-25T05:18:14;50.20;;;31.60;;
20271;SDS011;10295;49.812;9.866;2022-09-25T05:20:39;46.33;;;28.70;;
20271;SDS011;10295;49.812;9.866;2022-09-25T05:23:06;50.93;;;30.23;;
20271;SDS011;10295;49.812;9.866;2022-09-25T05:25:33;50.07;;;30.57;;
20271;SDS011;10295;49.812;9.866;2022-09-25T05:28:00;50.87;;;30.30;;
20271;SDS011;10295;49.812;9.866;2022-09-25T05:30:28;49.43;;;29.23;;
20271;SDS011;10295;49.812;9.866;2022-09-25T05:32:56;48.10;;;29.70;;
20271;SDS011;10295;49.812;9.866;2022-09-25T05:35:24;49.60;;;29.43;;
20271;SDS011;10295;49.812;9.866;2022-09-25T05:37:51;41.40;;;26.87;;
20271;SDS011;10295;49.812;9.866;2022-09-25T05:40:18;42.50;;;27.30;;
20271;SDS011;10295;49.812;9.866;2022-09-25T05:42:46;42.63;;;27.33;;
20271;SDS011;10295;49.812;9.866;2022-09-25T05:45:14;51.50;;;28.47;;
20271;SDS011;10295;49.812;9.866;2022-09-25T05:47:42;41.63;;;27.03;;
20271;SDS011;10295;49.812;9.866;2022-09-25T05:50:10;46.37;;;27.17;;
20271;SDS011;10295;49.812;9.866;2022-09-25T05:52:38;44.70;;;27.40;;
20271;SDS011;10295;49.812;9.866;2022-09-25T05:55:06;41.67;;;25.90;;
20271;SDS011;10295;49.812;9.866;2022-09-25T05:57:34;46.43;;;27.90;;
20271;SDS011;10295;49.812;9.866;2022-09-25T06:00:05;48.43;;;28.43;;
20271;SDS011;10295;49.812;9.866;2022-09-25T06:02:34;45.03;;;27.90;;
20271;SDS011;10295;49.812;9.866;2022-09-25T06:05:01;44.27;;;27.70;;
20271;SDS011;10295;49.812;9.866;2022-09-25T06:07:28;45.47;;;27.30;;
20271;SDS011;10295;49.812;9.866;2022-09-25T06:09:55;50.73;;;29.93;;
20271;SDS011;10295;49.812;9.866;2022-09-25T06:12:23;48.07;;;28.17;;
20271;SDS011;10295;49.812;9.866;2022-09-25T06:14:50;40.27;;;25.80;;
20271;SDS011;10295;49.812;9.866;2022-09-25T06:17:17;40.97;;;25.17;;
20271;SDS011;10295;49.812;9.866;2022-09-25T06:19:45;44.73;;;25.17;;
20271;SDS011;10295;49.812;9.866;2022-09-25T06:22:12;41.40;;;24.60;;
20271;SDS011;10295;49.812;9.866;2022-09-25T06:24:40;46.27;;;27.23;;
20271;SDS011;10295;49.812;9.866;2022-09-25T06:27:07;43.00;;;25.03;;
20271;SDS011;10295;49.812;9.866;2022-09-25T06:29:34;40.73;;;25.10;;
20271;SDS011;10295;49.812;9.866;2022-09-25T06:32:02;38.20;;;24.90;;
20271;SDS011;10295;49.812;9.866;2022-09-25T06:34:29;42.30;;;24.83;;
20271;SDS011;10295;49.812;9.866;2022-09-25T06:36:56;35.50;;;22.47;;
20271;SDS011;10295;49.812;9.866;2022-09-25T06:39:25;37.47;;;22.87;;
20271;SDS011;10295;49.812;9.866;2022-09-25T06:41:52;33.93;;;20.83;;
20271;SDS011;10295;49.812;9.866;2022-09-25T06:44:20;45.47;;;25.47;;
20271;SDS011;10295;49.812;9.866;2022-09-25T06:46:48;41.47;;;23.63;;
20271;SDS011;10295;49.812;9.866;2022-09-25T06:49:16;39.13;;;22.47;;
20271;SDS011;10295;49.812;9.866;2022-09-25T06:51:43;35.77;;;21.83;;
20271;SDS011;10295;49.812;9.866;2022-09-25T06:54:10;35.43;;;21.80;;
20271;SDS011;10295;49.812;9.866;2022-09-25T06:56:37;36.60;;;21.60;;
20271;SDS011;10295;49.812;9.866;2022-09-25T06:59:04;31.73;;;19.63;;
20271;SDS011;10295;49.812;9.866;2022-09-25T07:01:31;29.63;;;19.17;;
20271;SDS011;10295;49.812;9.866;2022-09-25T07:03:58;34.60;;;19.93;;
20271;SDS011;10295;49.812;9.866;2022-09-25T07:06:26;27.87;;;17.30;;
20271;SDS011;10295;49.812;9.866;2022-09-25T07:08:55;26.17;;;14.83;;
20271;SDS011;10295;49.812;9.866;2022-09-25T07:11:23;28.80;;;14.27;;
20271;SDS011;10295;49.812;9.866;2022-09-25T07:13:51;23.83;;;13.63;;
20271;SDS011;10295;49.812;9.866;2022-09-25T07:16:21;20.73;;;12.03;;
20271;SDS011;10295;49.812;9.866;2022-09-25T07:18:49;22.97;;;13.27;;
20271;SDS011;10295;49.812;9.866;2022-09-25T07:21:19;29.63;;;14.50;;
20271;SDS011;10295;49.812;9.866;2022-09-25T07:23:47;30.77;;;14.63;;
20271;SDS011;10295;49.812;9.866;2022-09-25T07:26:19;30.83;;;18.00;;
20271;SDS011;10295;49.812;9.866;2022-09-25T07:28:57;47.97;;;26.40;;
20271;SDS011;10295;49.812;9.866;2022-09-25T07:31:26;35.10;;;21.87;;
20271;SDS011;10295;49.812;9.866;2022-09-25T07:33:54;30.50;;;19.63;;
20271;SDS011;10295;49.812;9.866;2022-09-25T07:36:21;32.07;;;20.50;;
20271;SDS011;10295;49.812;9.866;2022-09-25T07:38:49;30.20;;;19.57;;
20271;SDS011;10295;49.812;9.866;2022-09-25T07:41:16;28.13;;;18.17;;
20271;SDS011;10295;49.812;9.866;2022-09-25T07:43:44;30.00;;;18.13;;
20271;SDS011;10295;49.812;9.866;2022-09-25T07:46:11;31.33;;;19.73;;
20271;SDS011;10295;49.812;9.866;2022-09-25T07:48:39;28.03;;;18.63;;
20271;SDS011;10295;49.812;9.866;2022-09-25T07:51:07;26.67;;;17.10;;
20271;SDS011;10295;49.812;9.866;2022-09-25T07:53:34;26.97;;;17.17;;
20271;SDS011;10295;49.812;9.866;2022-09-25T07:56:01;25.73;;;17.20;;
20271;SDS011;10295;49.812;9.866;2022-09-25T07:58:32;25.43;;;16.77;;
20271;SDS011;10295;49.812;9.866;2022-09-25T08:01:01;28.43;;;17.43;;
20271;SDS011;10295;49.812;9.866;2022-09-25T08:03:29;29.20;;;18.70;;
20271;SDS011;10295;49.812;9.866;2022-09-25T08:06:14;37.03;;;21.20;;
20271;SDS011;10295;49.812;9.866;2022-09-25T08:08:42;33.07;;;21.30;;
20271;SDS011;10295;49.812;9.866;2022-09-25T08:11:10;28.57;;;19.00;;
20271;SDS011;10295;49.812;9.866;2022-09-25T08:13:38;27.07;;;18.53;;
20271;SDS011;10295;49.812;9.866;2022-09-25T08:16:07;25.90;;;17.23;;
20271;SDS011;10295;49.812;9.866;2022-09-25T08:18:40;33.17;;;20.43;;
20271;SDS011;10295;49.812;9.866;2022-09-25T08:21:08;26.90;;;17.50;;
20271;SDS011;10295;49.812;9.866;2022-09-25T08:23:35;26.83;;;17.97;;
20271;SDS011;10295;49.812;9.866;2022-09-25T08:26:02;29.10;;;18.60;;
20271;SDS011;10295;49.812;9.866;2022-09-25T08:28:29;26.83;;;18.57;;
20271;SDS011;10295;49.812;9.866;2022-09-25T08:30:57;27.23;;;18.07;;
20271;SDS011;10295;49.812;9.866;2022-09-25T08:33:25;24.97;;;16.77;;
20271;SDS011;10295;49.812;9.866;2022-09-25T08:35:53;26.93;;;16.73;;
20271;SDS011;10295;49.812;9.866;2022-09-25T08:38:21;21.47;;;15.23;;
20271;SDS011;10295;49.812;9.866;2022-09-25T08:41:09;21.73;;;13.83;;
20271;SDS011;10295;49.812;9.866;2022-09-25T08:43:42;19.30;;;13.13;;
20271;SDS011;10295;49.812;9.866;2022-09-25T08:46:17;16.10;;;11.30;;
20271;SDS011;10295;49.812;9.866;2022-09-25T08:49:04;15.70;;;10.20;;
20271;SDS011;10295;49.812;9.866;2022-09-25T08:51:35;17.07;;;10.70;;
20271;SDS011;10295;49.812;9.866;2022-09-25T08:54:03;15.40;;;10.77;;
20271;SDS011;10295;49.812;9.866;2022-09-25T08:56:32;14.37;;;9.50;;
20271;SDS011;10295;49.812;9.866;2022-09-25T08:59:21;15.53;;;10.13;;
20271;SDS011;10295;49.812;9.866;2022-09-25T09:01:54;18.27;;;10.90;;
20271;SDS011;10295;49.812;9.866;2022-09-25T09:04:32;17.90;;;10.80;;
20271;SDS011;10295;49.812;9.866;2022-09-25T09:07:07;18.23;;;12.77;;
20271;SDS011;10295;49.812;9.866;2022-09-25T09:09:54;22.37;;;12.67;;
20271;SDS011;10295;49.812;9.866;2022-09-25T09:17:45;17.07;;;11.50;;
20271;SDS011;10295;49.812;9.866;2022-09-25T09:20:17;17.10;;;11.37;;
20271;SDS011;10295;49.812;9.866;2022-09-25T09:22:46;18.07;;;11.77;;
20271;SDS011;10295;49.812;9.866;2022-09-25T09:33:24;17.13;;;10.77;;
20271;SDS011;10295;49.812;9.866;2022-09-25T09:43:48;18.87;;;11.30;;
20271;SDS011;10295;49.812;9.866;2022-09-25T09:46:26;17.87;;;11.10;;
20271;SDS011;10295;49.812;9.866;2022-09-25T09:49:07;15.47;;;9.83;;
20271;SDS011;10295;49.812;9.866;2022-09-25T09:54:58;15.27;;;9.70;;
20271;SDS011;10295;49.812;9.866;2022-09-25T09:57:27;16.40;;;10.30;;
20271;SDS011;10295;49.812;9.866;2022-09-25T09:59:57;19.80;;;11.17;;
20271;SDS011;10295;49.812;9.866;2022-09-25T10:04:58;16.83;;;10.73;;
20271;SDS011;10295;49.812;9.866;2022-09-25T10:07:29;16.40;;;9.73;;
20271;SDS011;10295;49.812;9.866;2022-09-25T10:09:58;14.70;;;9.50;;
20271;SDS011;10295;49.812;9.866;2022-09-25T10:12:29;18.00;;;9.70;;
20271;SDS011;10295;49.812;9.866;2022-09-25T10:15:00;15.33;;;9.47;;
20271;SDS011;10295;49.812;9.866;2022-09-25T10:20:52;16.60;;;9.57;;
20271;SDS011;10295;49.812;9.866;2022-09-25T10:31:55;15.63;;;9.13;;
20271;SDS011;10295;49.812;9.866;2022-09-25T10:34:23;18.63;;;10.77;;
20271;SDS011;10295;49.812;9.866;2022-09-25T10:36:52;12.73;;;8.23;;
20271;SDS011;10295;49.812;9.866;2022-09-25T10:42:29;14.23;;;8.73;;
20271;SDS011;10295;49.812;9.866;2022-09-25T10:52:00;14.63;;;8.50;;
20271;SDS011;10295;49.812;9.866;2022-09-25T10:54:30;13.50;;;8.23;;
20271;SDS011;10295;49.812;9.866;2022-09-25T10:56:57;12.57;;;7.80;;
20271;SDS011;10295;49.812;9.866;2022-09-25T10:59:25;12.60;;;7.60;;
20271;SDS011;10295;49.812;9.866;2022-09-25T11:01:53;12.33;;;7.67;;
20271;SDS011;10295;49.812;9.866;2022-09-25T11:04:22;14.73;;;8.43;;
20271;SDS011;10295;49.812;9.866;2022-09-25T11:06:51;11.20;;;6.87;;
20271;SDS011;10295;49.812;9.866;2022-09-25T11:09:20;11.37;;;5.90;;
20271;SDS011;10295;49.812;9.866;2022-09-25T11:11:48;10.68;;;6.28;;
20271;SDS011;10295;49.812;9.866;2022-09-25T11:16:50;10.73;;;5.45;;
20271;SDS011;10295;49.812;9.866;2022-09-25T11:19:26;8.13;;;4.20;;
20271;SDS011;10295;49.812;9.866;2022-09-25T11:21:58;8.77;;;4.50;;
20271;SDS011;10295;49.812;9.866;2022-09-25T11:24:31;8.88;;;4.63;;
20271;SDS011;10295;49.812;9.866;2022-09-25T11:27:13;8.73;;;4.63;;
20271;SDS011;10295;49.812;9.866;2022-09-25T11:32:28;7.45;;;3.85;;
20271;SDS011;10295;49.812;9.866;2022-09-25T11:48:13;9.02;;;4.55;;
20271;SDS011;10295;49.812;9.866;2022-09-25T11:50:51;6.82;;;3.50;;
20271;SDS011;10295;49.812;9.866;2022-09-25T11:56:02;7.45;;;3.72;;
20271;SDS011;10295;49.812;9.866;2022-09-25T12:09:27;7.17;;;2.50;;
20271;SDS011;10295;49.812;9.866;2022-09-25T12:25:29;3.65;;;1.70;;
20271;SDS011;10295;49.812;9.866;2022-09-25T12:28:44;4.28;;;1.88;;
20271;SDS011;10295;49.812;9.866;2022-09-25T12:31:01;6.25;;;1.88;;
20271;SDS011;10295;49.812;9.866;2022-09-25T12:33:36;4.97;;;1.67;;
20271;SDS011;10295;49.812;9.866;2022-09-25T12:43:16;6.57;;;2.13;;
20271;SDS011;10295;49.812;9.866;2022-09-25T12:45:46;5.28;;;2.30;;
20271;SDS011;10295;49.812;9.866;2022-09-25T12:48:16;6.10;;;2.58;;
20271;SDS011;10295;49.812;9.866;2022-09-25T12:53:29;6.25;;;2.90;;
20271;SDS011;10295;49.812;9.866;2022-09-25T12:56:09;5.70;;;2.42;;
20271;SDS011;10295;49.812;9.866;2022-09-25T13:03:03;6.82;;;2.72;;
20271;SDS011;10295;49.812;9.866;2022-09-25T13:05:53;7.95;;;2.92;;
20271;SDS011;10295;49.812;9.866;2022-09-25T13:08:40;6.55;;;2.60;;
20271;SDS011;10295;49.812;9.866;2022-09-25T13:11:11;6.00;;;2.60;;
20271;SDS011;10295;49.812;9.866;2022-09-25T13:13:41;7.43;;;2.55;;
20271;SDS011;10295;49.812;9.866;2022-09-25T13:16:10;6.20;;;2.60;;
20271;SDS011;10295;49.812;9.866;2022-09-25T13:18:48;7.65;;;2.67;;
20271;SDS011;10295;49.812;9.866;2022-09-25T13:21:34;8.43;;;2.47;;
20271;SDS011;10295;49.812;9.866;2022-09-25T13:24:03;5.68;;;2.15;;
20271;SDS011;10295;49.812;9.866;2022-09-25T13:26:47;6.68;;;2.35;;
20271;SDS011;10295;49.812;9.866;2022-09-25T13:29:25;4.90;;;2.17;;
20271;SDS011;10295;49.812;9.866;2022-09-25T13:32:04;4.55;;;2.05;;
20271;SDS011;10295;49.812;9.866;2022-09-25T13:34:36;4.38;;;1.88;;
20271;SDS011;10295;49.812;9.866;2022-09-25T13:37:05;4.97;;;2.00;;
20271;SDS011;10295;49.812;9.866;2022-09-25T13:39:34;5.78;;;2.30;;
20271;SDS011;10295;49.812;9.866;2022-09-25T13:44:58;6.50;;;2.22;;
20271;SDS011;10295;49.812;9.866;2022-09-25T13:47:41;4.03;;;1.80;;
20271;SDS011;10295;49.812;9.866;2022-09-25T13:50:22;4.72;;;1.90;;
20271;SDS011;10295;49.812;9.866;2022-09-25T13:52:51;4.93;;;1.80;;
20271;SDS011;10295;49.812;9.866;2022-09-25T13:55:39;5.18;;;1.80;;
20271;SDS011;10295;49.812;9.866;2022-09-25T14:03:38;4.80;;;1.73;;
20271;SDS011;10295;49.812;9.866;2022-09-25T14:06:15;5.57;;;1.70;;
20271;SDS011;10295;49.812;9.866;2022-09-25T14:08:43;5.85;;;1.90;;
20271;SDS011;10295;49.812;9.866;2022-09-25T14:11:12;7.07;;;3.30;;
20271;SDS011;10295;49.812;9.866;2022-09-25T14:13:41;4.13;;;1.80;;
20271;SDS011;10295;49.812;9.866;2022-09-25T14:16:20;4.22;;;1.77;;
20271;SDS011;10295;49.812;9.866;2022-09-25T14:18:51;4.78;;;2.17;;
20271;SDS011;10295;49.812;9.866;2022-09-25T14:21:28;3.55;;;1.60;;
20271;SDS011;10295;49.812;9.866;2022-09-25T14:24:11;3.95;;;1.73;;
20271;SDS011;10295;49.812;9.866;2022-09-25T14:26:45;4.55;;;2.13;;
20271;SDS011;10295;49.812;9.866;2022-09-25T14:29:36;5.10;;;2.35;;
20271;SDS011;10295;49.812;9.866;2022-09-25T14:45:00;6.13;;;2.50;;
20271;SDS011;10295;49.812;9.866;2022-09-25T14:47:33;8.20;;;3.00;;
20271;SDS011;10295;49.812;9.866;2022-09-25T14:50:02;6.23;;;2.50;;
20271;SDS011;10295;49.812;9.866;2022-09-25T14:52:30;5.77;;;2.33;;
20271;SDS011;10295;49.812;9.866;2022-09-25T14:54:59;5.80;;;2.43;;
20271;SDS011;10295;49.812;9.866;2022-09-25T14:57:31;5.93;;;2.40;;
20271;SDS011;10295;49.812;9.866;2022-09-25T15:00:01;6.93;;;2.63;;
20271;SDS011;10295;49.812;9.866;2022-09-25T15:02:35;6.23;;;2.73;;
20271;SDS011;10295;49.812;9.866;2022-09-25T15:07:49;10.80;;;2.87;;
20271;SDS011;10295;49.812;9.866;2022-09-25T15:12:49;5.27;;;2.10;;
20271;SDS011;10295;49.812;9.866;2022-09-25T15:15:16;6.40;;;2.30;;
20271;SDS011;10295;49.812;9.866;2022-09-25T15:17:50;6.07;;;2.10;;
20271;SDS011;10295;49.812;9.866;2022-09-25T15:20:19;5.17;;;2.30;;
20271;SDS011;10295;49.812;9.866;2022-09-25T15:22:54;5.87;;;2.77;;
20271;SDS011;10295;49.812;9.866;2022-09-25T15:25:26;8.07;;;3.60;;
20271;SDS011;10295;49.812;9.866;2022-09-25T15:27:54;8.37;;;3.87;;
20271;SDS011;10295;49.812;9.866;2022-09-25T15:30:21;8.50;;;4.27;;
20271;SDS011;10295;49.812;9.866;2022-09-25T15:32:51;10.70;;;4.60;;
20271;SDS011;10295;49.812;9.866;2022-09-25T15:35:25;9.30;;;3.67;;
20271;SDS011;10295;49.812;9.866;2022-09-25T15:38:03;7.10;;;3.23;;
20271;SDS011;10295;49.812;9.866;2022-09-25T15:40:31;7.47;;;2.73;;
20271;SDS011;10295;49.812;9.866;2022-09-25T15:42:59;10.40;;;3.97;;
20271;SDS011;10295;49.812;9.866;2022-09-25T15:50:40;6.57;;;3.07;;
20271;SDS011;10295;49.812;9.866;2022-09-25T15:53:13;6.43;;;2.80;;
20271;SDS011;10295;49.812;9.866;2022-09-25T15:55:42;10.13;;;3.73;;
20271;SDS011;10295;49.812;9.866;2022-09-25T15:58:11;9.20;;;3.93;;
20271;SDS011;10295;49.812;9.866;2022-09-25T16:00:51;8.07;;;4.37;;
20271;SDS011;10295;49.812;9.866;2022-09-25T16:03:41;8.07;;;3.93;;
20271;SDS011;10295;49.812;9.866;2022-09-25T16:06:29;8.57;;;4.40;;
20271;SDS011;10295;49.812;9.866;2022-09-25T16:11:36;8.93;;;4.50;;
20271;SDS011;10295;49.812;9.866;2022-09-25T16:16:46;9.37;;;4.93;;
20271;SDS011;10295;49.812;9.866;2022-09-25T16:21:51;9.87;;;5.00;;
20271;SDS011;10295;49.812;9.866;2022-09-25T16:24:19;9.67;;;5.00;;
20271;SDS011;10295;49.812;9.866;2022-09-25T16:26:51;10.93;;;5.30;;
20271;SDS011;10295;49.812;9.866;2022-09-25T16:29:23;12.30;;;5.40;;
20271;SDS011;10295;49.812;9.866;2022-09-25T16:31:51;12.93;;;6.07;;
20271;SDS011;10295;49.812;9.866;2022-09-25T16:36:56;11.70;;;6.40;;
20271;SDS011;10295;49.812;9.866;2022-09-25T16:39:28;14.80;;;6.60;;
20271;SDS011;10295;49.812;9.866;2022-09-25T16:41:55;12.73;;;6.10;;
20271;SDS011;10295;49.812;9.866;2022-09-25T16:49:24;13.20;;;7.50;;
20271;SDS011;10295;49.812;9.866;2022-09-25T16:51:52;14.97;;;7.00;;
20271;SDS011;10295;49.812;9.866;2022-09-25T16:54:20;11.20;;;6.23;;
20271;SDS011;10295;49.812;9.866;2022-09-25T16:56:56;12.23;;;6.77;;
20271;SDS011;10295;49.812;9.866;2022-09-25T16:59:25;17.27;;;6.80;;
20271;SDS011;10295;49.812;9.866;2022-09-25T17:01:54;11.63;;;6.30;;
20271;SDS011;10295;49.812;9.866;2022-09-25T17:04:27;13.83;;;6.50;;
20271;SDS011;10295;49.812;9.866;2022-09-25T17:06:54;12.10;;;6.80;;
20271;SDS011;10295;49.812;9.866;2022-09-25T17:09:23;12.67;;;6.80;;
20271;SDS011;10295;49.812;9.866;2022-09-25T17:11:51;15.43;;;6.80;;
20271;SDS011;10295;49.812;9.866;2022-09-25T17:14:24;12.67;;;6.20;;
20271;SDS011;10295;49.812;9.866;2022-09-25T17:16:52;14.70;;;6.00;;
20271;SDS011;10295;49.812;9.866;2022-09-25T17:19:20;10.97;;;6.07;;
20271;SDS011;10295;49.812;9.866;2022-09-25T17:21:48;13.33;;;5.50;;
20271;SDS011;10295;49.812;9.866;2022-09-25T17:24:17;12.17;;;6.20;;
20271;SDS011;10295;49.812;9.866;2022-09-25T17:26:45;12.47;;;6.93;;
20271;SDS011;10295;49.812;9.866;2022-09-25T17:29:12;18.93;;;11.73;;
20271;SDS011;10295;49.812;9.866;2022-09-25T17:31:39;18.93;;;10.33;;
20271;SDS011;10295;49.812;9.866;2022-09-25T17:37:29;15.00;;;7.87;;
20271;SDS011;10295;49.812;9.866;2022-09-25T17:39:56;14.03;;;7.90;;
20271;SDS011;10295;49.812;9.866;2022-09-25T17:42:25;16.97;;;8.67;;
20271;SDS011;10295;49.812;9.866;2022-09-25T17:44:52;17.57;;;9.63;;
20271;SDS011;10295;49.812;9.866;2022-09-25T17:47:20;18.83;;;10.97;;
20271;SDS011;10295;49.812;9.866;2022-09-25T17:49:47;16.93;;;8.47;;